Time;durP1;ratioP1;P1;durP2;ratioP2;P2;SDS_P1;SDS_P2;PMS_P1;PMS_P2;Temp;Humidity;BMP_temperature;BMP_pressure;BME280_temperature;BME280_humidity;BME280_pressure;Samples;Min_cycle;Max_cycle;Signal;HPM_P1;HPM_P2
2023/04/27 00:02:21;;;;;;;;;;;;;;;22.15;22.62;98273.09;5110370;28;19923;-84
2023/04/27 00:04:47;;;;;;;;;;;;;;;22.44;22.52;98261.13;5094982;28;20060;-83
2023/04/27 00:07:13;;;;;;;;;;;;;;;22.74;22.16;98262.38;5105744;28;20043;-84
2023/04/27 00:09:39;;;;;;;;;;;;;;;22.93;21.71;98272.91;5113980;28;19916;-84
2023/04/27 00:12:05;;;;;;;;;;;;;;;23.09;21.59;98267.47;5110829;28;19972;-84
2023/04/27 00:14:32;;;;;;;;;;;;;;;22.75;21.84;98273.16;5110430;28;20329;-84
2023/04/27 00:16:58;;;;;;;;;;;;;;;22.80;22.31;98271.91;5108509;28;19930;-84
2023/04/27 00:19:24;;;;;;;;;;;;;;;22.98;22.01;98273.25;5098572;28;19919;-84
2023/04/27 00:21:50;;;;;;;;;;;;;;;22.57;21.73;98275.34;5108202;28;19952;-84
2023/04/27 00:24:16;;;;;;;;;;;;;;;22.40;22.33;98271.59;5104029;28;20391;-83
2023/04/27 00:26:42;;;;;;;;;;;;;;;22.64;22.27;98272.50;5109596;28;20325;-84
2023/04/27 00:29:08;;;;;;;;;;;;;;;22.84;21.62;98259.44;5112762;28;19927;-84
2023/04/27 00:31:34;;;;;;;;;;;;;;;22.74;22.18;98268.78;5104636;28;19927;-83
2023/04/27 00:34:00;;;;;;;;;;;;;;;22.91;22.29;98264.94;5089894;28;19920;-86
2023/04/27 00:36:26;;;;;;;;;;;;;;;22.90;22.33;98268.16;5108008;28;20375;-83
2023/04/27 00:38:53;;;;;;;;;;;;;;;22.91;21.70;98259.34;5107514;28;19919;-83
2023/04/27 00:41:19;;;;;;;;;;;;;;;22.88;21.84;98262.97;5109622;28;19920;-83
2023/04/27 00:43:45;;;;;;;;;;;;;;;23.02;21.62;98267.56;5111454;28;20388;-83
2023/04/27 00:46:15;;;;;;;;;;;;;;;23.13;21.58;98260.59;5110172;28;19920;-84
2023/04/27 00:48:41;;;;;;;;;;;;;;;23.06;21.74;98266.31;5109310;28;19930;-84
2023/04/27 00:51:07;;;;;;;;;;;;;;;23.00;21.47;98270.00;5106277;28;19930;-84
2023/04/27 00:53:35;;;;;;;;;;;;;;;23.02;21.82;98265.56;5101199;28;20382;-84
2023/04/27 00:56:01;;;;;;;;;;;;;;;23.03;21.60;98266.38;5107948;28;19934;-84
2023/04/27 00:58:27;;;;;;;;;;;;;;;22.98;21.98;98269.63;5110547;28;19920;-84
2023/04/27 01:00:53;;;;;;;;;;;;;;;22.97;22.08;98268.84;5105646;28;19938;-84
2023/04/27 01:03:19;;;;;;;;;;;;;;;22.99;21.91;98263.59;5103770;28;20296;-85
2023/04/27 01:05:45;;;;;;;;;;;;;;;23.10;21.62;98271.88;5107360;28;19919;-84
2023/04/27 01:08:11;;;;;;;;;;;;;;;23.10;21.47;98272.66;5105883;28;19939;-84
2023/04/27 01:10:37;;;;;;;;;;;;;;;23.18;21.44;98270.53;5109298;28;19924;-85
2023/04/27 01:13:03;;;;;;;;;;;;;;;23.16;21.51;98273.75;5107380;28;19928;-85
2023/04/27 01:15:29;;;;;;;;;;;;;;;23.09;21.21;98279.47;5108520;28;19919;-84
2023/04/27 01:17:56;;;;;;;;;;;;;;;22.62;21.97;98286.91;5109050;28;19959;-83
2023/04/27 01:20:22;;;;;;;;;;;;;;;22.71;22.12;98283.59;5105478;28;19920;-84
2023/04/27 01:22:48;;;;;;;;;;;;;;;22.71;21.44;98286.41;5105623;28;20290;-83
2023/04/27 01:25:14;;;;;;;;;;;;;;;22.71;21.80;98289.19;5106803;28;19920;-84
2023/04/27 01:27:40;;;;;;;;;;;;;;;22.85;21.75;98291.03;5104777;28;20375;-83
2023/04/27 01:30:07;;;;;;;;;;;;;;;22.80;22.35;98292.28;5110403;28;19924;-84
2023/04/27 01:32:35;;;;;;;;;;;;;;;22.83;21.83;98293.44;5107776;28;20114;-84
2023/04/27 01:35:01;;;;;;;;;;;;;;;22.94;21.32;98280.88;5106350;28;19923;-83
2023/04/27 01:37:27;;;;;;;;;;;;;;;22.46;21.87;98297.09;5092485;28;19924;-84
2023/04/27 01:39:53;;;;;;;;;;;;;;;22.24;22.55;98290.94;5105704;28;19968;-83
2023/04/27 01:42:19;;;;;;;;;;;;;;;22.50;22.24;98300.63;5112399;28;20435;-84
2023/04/27 01:44:45;;;;;;;;;;;;;;;22.42;21.78;98299.13;5107823;28;19920;-84
2023/04/27 01:47:13;;;;;;;;;;;;;;;22.18;22.59;98294.59;5107458;28;19919;-84
2023/04/27 01:49:39;;;;;;;;;;;;;;;22.42;22.29;98302.75;5106589;28;20294;-83
2023/04/27 01:52:05;;;;;;;;;;;;;;;22.35;22.14;98300.03;5105370;28;19931;-83
2023/04/27 01:54:31;;;;;;;;;;;;;;;22.27;22.10;98300.50;5101556;28;19920;-84
2023/04/27 01:56:57;;;;;;;;;;;;;;;22.38;22.42;98304.00;5106639;28;19927;-84
2023/04/27 01:59:23;;;;;;;;;;;;;;;22.54;22.07;98309.78;5094297;28;19920;-83
2023/04/27 02:01:49;;;;;;;;;;;;;;;22.23;22.20;98300.56;5109240;28;20383;-84
2023/04/27 02:04:15;;;;;;;;;;;;;;;22.14;22.20;98297.47;5110436;28;19934;-84
2023/04/27 02:06:41;;;;;;;;;;;;;;;22.20;22.33;98306.97;5107616;28;19919;-84
2023/04/27 02:09:08;;;;;;;;;;;;;;;22.43;21.51;98307.09;5108262;28;19926;-84
2023/04/27 02:11:34;;;;;;;;;;;;;;;22.24;21.85;98299.31;5102078;28;19920;-84
2023/04/27 02:14:00;;;;;;;;;;;;;;;22.24;22.48;98298.56;5107675;28;20019;-84
2023/04/27 02:16:26;;;;;;;;;;;;;;;22.23;21.99;98303.34;5085843;28;19927;-84
2023/04/27 02:18:52;;;;;;;;;;;;;;;22.39;21.56;98308.34;5111635;28;19920;-84
2023/04/27 02:21:18;;;;;;;;;;;;;;;22.07;21.37;98303.13;5111251;28;19924;-84
2023/04/27 02:23:44;;;;;;;;;;;;;;;22.06;21.44;98298.72;5107764;28;19927;-84
2023/04/27 02:26:21;;;;;;;;;;;;;;;22.16;21.23;98303.44;5111792;28;19920;-83
2023/04/27 02:28:47;;;;;;;;;;;;;;;21.61;21.66;98303.50;5117490;28;20378;-83
2023/04/27 02:31:13;;;;;;;;;;;;;;;21.16;21.99;98305.47;5116482;28;19931;-84
2023/04/27 02:33:40;;;;;;;;;;;;;;;21.08;22.71;98303.09;5113443;28;19919;-83
2023/04/27 02:36:07;;;;;;;;;;;;;;;21.33;21.79;98303.75;5115753;28;20075;-83
2023/04/27 02:38:33;;;;;;;;;;;;;;;21.42;21.80;98303.28;5117050;28;19927;-83
2023/04/27 02:40:59;;;;;;;;;;;;;;;21.43;22.07;98308.44;5116035;28;20311;-83
2023/04/27 02:43:25;;;;;;;;;;;;;;;21.65;21.62;98307.09;5108456;28;19920;-83
2023/04/27 02:45:51;;;;;;;;;;;;;;;21.70;21.75;98308.63;5116202;28;19920;-83
2023/04/27 02:48:17;;;;;;;;;;;;;;;21.53;21.75;98306.78;5113406;28;19926;-82
2023/04/27 02:50:43;;;;;;;;;;;;;;;21.34;21.70;98303.34;5111146;28;20291;-82
2023/04/27 02:53:10;;;;;;;;;;;;;;;21.29;22.08;98297.38;5102953;28;19972;-83
2023/04/27 02:55:36;;;;;;;;;;;;;;;21.30;21.96;98298.97;5111927;28;19928;-83
2023/04/27 02:58:02;;;;;;;;;;;;;;;21.27;22.08;98306.19;5112027;28;20294;-83
2023/04/27 03:00:28;;;;;;;;;;;;;;;21.28;21.48;98306.97;5106473;28;19958;-82
2023/04/27 03:02:55;;;;;;;;;;;;;;;21.27;21.25;98314.56;5116441;28;19920;-83
2023/04/27 03:05:21;;;;;;;;;;;;;;;21.37;21.40;98309.31;5113504;28;19930;-83
2023/04/27 03:07:47;;;;;;;;;;;;;;;21.54;21.26;98309.16;5107022;28;20414;-83
2023/04/27 03:10:13;;;;;;;;;;;;;;;21.47;20.95;98314.03;5109740;28;20411;-83
2023/04/27 03:12:39;;;;;;;;;;;;;;;21.19;21.17;98310.22;5110910;28;19928;-83
2023/04/27 03:15:05;;;;;;;;;;;;;;;21.11;21.41;98319.03;5115262;28;19927;-83
2023/04/27 03:17:31;;;;;;;;;;;;;;;21.25;21.58;98318.97;5104144;28;19931;-83
2023/04/27 03:19:57;;;;;;;;;;;;;;;20.97;21.50;98319.09;5113576;28;19927;-83
2023/04/27 03:22:23;;;;;;;;;;;;;;;20.62;22.10;98320.88;5111667;28;19920;-83
2023/04/27 03:24:50;;;;;;;;;;;;;;;20.70;21.51;98318.81;5104336;28;20317;-83
2023/04/27 03:27:16;;;;;;;;;;;;;;;20.86;21.65;98321.97;5102505;28;19920;-83
2023/04/27 03:29:41;;;;;;;;;;;;;;;20.82;22.25;98320.41;5111548;28;19969;-83
2023/04/27 03:32:07;;;;;;;;;;;;;;;20.98;21.88;98320.69;5112592;28;19923;-83
2023/04/27 03:34:34;;;;;;;;;;;;;;;20.98;20.89;98324.25;5111633;28;19943;-83
2023/04/27 03:37:00;;;;;;;;;;;;;;;20.88;21.44;98327.13;5113443;28;19927;-83
2023/04/27 03:39:26;;;;;;;;;;;;;;;20.80;22.07;98328.34;5112124;28;19931;-83
2023/04/27 03:41:52;;;;;;;;;;;;;;;21.03;21.39;98329.44;5114313;28;19927;-83
2023/04/27 03:44:18;;;;;;;;;;;;;;;20.99;21.16;98331.44;5113910;28;19924;-83
2023/04/27 03:46:44;;;;;;;;;;;;;;;20.91;21.70;98338.25;5112697;28;19972;-83
2023/04/27 03:49:10;;;;;;;;;;;;;;;21.06;21.87;98334.22;5096540;28;20002;-83
2023/04/27 03:51:41;;;;;;;;;;;;;;;21.38;21.39;98344.41;5114413;28;20328;-83
2023/04/27 03:54:07;;;;;;;;;;;;;;;21.60;21.21;98349.44;5110746;28;19927;-83
2023/04/27 03:56:33;;;;;;;;;;;;;;;21.61;21.18;98347.44;5085137;28;19923;-83
2023/04/27 03:58:59;;;;;;;;;;;;;;;21.90;21.31;98346.00;5110597;28;19943;-83
2023/04/27 04:01:25;;;;;;;;;;;;;;;22.36;21.32;98351.16;5112329;28;19920;-82
2023/04/27 04:03:51;;;;;;;;;;;;;;;22.65;21.22;98350.47;5110930;28;20283;-83
2023/04/27 04:06:17;;;;;;;;;;;;;;;22.82;21.42;98350.66;5108773;28;19919;-83
2023/04/27 04:08:43;;;;;;;;;;;;;;;22.95;21.35;98354.47;5104400;28;20359;-83
2023/04/27 04:11:09;;;;;;;;;;;;;;;23.10;21.72;98350.28;5110791;28;19998;-83
2023/04/27 04:13:36;;;;;;;;;;;;;;;23.22;21.99;98358.13;5106073;28;19998;-84
2023/04/27 04:16:05;;;;;;;;;;;;;;;23.35;21.75;98356.34;5107188;28;19920;-84
2023/04/27 04:18:32;;;;;;;;;;;;;;;22.76;21.98;98363.50;5108439;28;19920;-84
2023/04/27 04:20:58;;;;;;;;;;;;;;;22.27;22.91;98362.03;5098822;28;19942;-85
2023/04/27 04:23:24;;;;;;;;;;;;;;;22.60;22.60;98364.06;5084774;28;20010;-85
2023/04/27 04:25:50;;;;;;;;;;;;;;;22.59;21.61;98363.28;5107045;28;19965;-85
2023/04/27 04:28:16;;;;;;;;;;;;;;;22.39;22.34;98362.31;5099967;28;19924;-85
2023/04/27 04:30:42;;;;;;;;;;;;;;;22.57;22.15;98376.09;5107140;28;19970;-83
2023/04/27 04:33:08;;;;;;;;;;;;;;;22.67;21.93;98369.63;5106752;28;20022;-85
2023/04/27 04:35:38;;;;;;;;;;;;;;;22.82;21.53;98376.66;5100716;28;20017;-83
2023/04/27 04:38:04;;;;;;;;;;;;;;;22.90;21.86;98378.13;5104155;28;20409;-84
2023/04/27 04:40:30;;;;;;;;;;;;;;;23.00;21.48;98382.03;5105621;28;20046;-83
2023/04/27 04:42:56;;;;;;;;;;;;;;;22.95;21.50;98382.47;5102027;28;19930;-82
2023/04/27 04:45:22;;;;;;;;;;;;;;;22.73;21.93;98384.78;5104095;28;20382;-84
2023/04/27 04:47:48;;;;;;;;;;;;;;;22.65;21.79;98386.84;5107887;28;20379;-84
2023/04/27 04:50:14;;;;;;;;;;;;;;;22.68;22.42;98388.78;5109110;28;19922;-84
2023/04/27 04:52:40;;;;;;;;;;;;;;;22.75;22.99;98385.13;5110917;28;20372;-84
2023/04/27 04:55:06;;;;;;;;;;;;;;;23.00;23.12;98393.22;5105314;28;21616;-89
2023/04/27 04:57:32;;;;;;;;;;;;;;;23.07;23.60;98395.94;5103417;28;19920;-84
2023/04/27 04:59:59;;;;;;;;;;;;;;;23.27;23.66;98391.25;5108881;28;20272;-84
2023/04/27 05:02:25;;;;;;;;;;;;;;;23.28;23.77;98388.06;5102629;28;20359;-89
2023/04/27 05:04:51;;;;;;;;;;;;;;;23.25;24.11;98388.88;5106004;28;19919;-87
2023/04/27 05:07:17;;;;;;;;;;;;;;;23.44;23.95;98390.25;5109836;28;20271;-87
2023/04/27 05:09:43;;;;;;;;;;;;;;;23.47;23.35;98394.22;5112955;28;19916;-87
2023/04/27 05:12:09;;;;;;;;;;;;;;;23.34;23.77;98391.16;5111650;28;19927;-87
2023/04/27 05:14:35;;;;;;;;;;;;;;;23.48;24.97;98395.81;5096542;28;19964;-87
2023/04/27 05:17:01;;;;;;;;;;;;;;;23.80;24.10;98391.31;5115034;28;20389;-87
2023/04/27 05:19:30;;;;;;;;;;;;;;;23.96;23.60;98396.25;5114815;28;20382;-87
2023/04/27 05:21:57;;;;;;;;;;;;;;;24.21;23.25;98388.25;5113515;28;19916;-87
2023/04/27 05:24:24;;;;;;;;;;;;;;;24.14;23.95;98401.59;5114705;28;19916;-87
2023/04/27 05:26:50;;;;;;;;;;;;;;;24.10;23.12;98396.06;5114020;28;20000;-87
2023/04/27 05:29:16;;;;;;;;;;;;;;;24.03;21.96;98396.94;5100899;28;20049;-87
2023/04/27 05:31:42;;;;;;;;;;;;;;;23.98;22.43;98399.44;5094317;28;19934;-87
2023/04/27 05:34:08;;;;;;;;;;;;;;;24.14;23.42;98404.41;5094384;28;20005;-87
2023/04/27 05:36:35;;;;;;;;;;;;;;;24.44;22.63;98405.06;5093988;28;19923;-87
2023/04/27 05:39:01;;;;;;;;;;;;;;;24.85;22.88;98403.94;5094193;28;20011;-87
2023/04/27 05:41:31;;;;;;;;;;;;;;;25.22;22.57;98407.16;5111387;28;19920;-87
2023/04/27 05:43:57;;;;;;;;;;;;;;;25.49;22.68;98409.78;5111390;28;19926;-87
2023/04/27 05:46:23;;;;;;;;;;;;;;;25.75;21.53;98408.78;5086757;28;20397;-87
2023/04/27 05:48:49;;;;;;;;;;;;;;;25.86;22.07;98414.16;5108439;28;19920;-87
2023/04/27 05:51:15;;;;;;;;;;;;;;;25.87;22.76;98407.31;5109857;28;19920;-87
2023/04/27 05:53:41;;;;;;;;;;;;;;;26.06;22.01;98418.50;5104682;28;20257;-87
2023/04/27 05:56:07;;;;;;;;;;;;;;;26.08;22.31;98415.25;5094038;28;20006;-87
2023/04/27 05:58:34;;;;;;;;;;;;;;;26.13;22.48;98411.94;5093527;28;20091;-88
2023/04/27 06:01:00;;;;;;;;;;;;;;;26.14;22.25;98427.56;5107679;28;19920;-87
2023/04/27 06:03:26;;;;;;;;;;;;;;;26.19;21.91;98423.44;5114232;28;20421;-87
2023/04/27 06:05:52;;;;;;;;;;;;;;;26.18;21.88;98424.69;5114119;28;19916;-88
2023/04/27 06:08:19;;;;;;;;;;;;;;;26.22;21.96;98426.16;5084991;28;19947;-88
2023/04/27 06:10:45;;;;;;;;;;;;;;;26.32;21.61;98422.31;5093962;28;20367;-87
2023/04/27 06:13:11;;;;;;;;;;;;;;;26.13;21.72;98426.00;5098973;28;19920;-87
2023/04/27 06:15:37;;;;;;;;;;;;;;;25.76;20.29;98423.66;5114319;28;19923;-87
2023/04/27 06:18:03;;;;;;;;;;;;;;;24.60;23.19;98424.81;5107573;28;19950;-86
2023/04/27 06:20:29;;;;;;;;;;;;;;;23.79;22.65;98417.75;5092406;28;20022;-87
2023/04/27 06:22:56;;;;;;;;;;;;;;;24.21;23.80;98424.72;5103597;28;19959;-87
2023/04/27 06:25:22;;;;;;;;;;;;;;;24.87;23.87;98424.75;5114585;28;19916;-87
2023/04/27 06:27:48;;;;;;;;;;;;;;;25.01;22.18;98429.28;5099149;28;20383;-87
2023/04/27 06:30:15;;;;;;;;;;;;;;;24.50;23.09;98425.03;5094730;28;20006;-86
2023/04/27 06:32:41;;;;;;;;;;;;;;;23.53;22.66;98432.56;5113457;28;19920;-86
2023/04/27 06:35:07;;;;;;;;;;;;;;;23.76;22.33;98434.63;5113544;28;19916;-87
2023/04/27 06:37:34;;;;;;;;;;;;;;;22.92;23.03;98440.13;5113797;28;19930;-86
2023/04/27 06:40:00;;;;;;;;;;;;;;;22.98;23.46;98441.25;5102579;28;19931;-87
2023/04/27 06:42:26;;;;;;;;;;;;;;;22.62;23.24;98434.44;5112907;28;19964;-86
2023/04/27 06:44:52;;;;;;;;;;;;;;;22.69;23.79;98448.38;5113868;28;19923;-86
2023/04/27 06:47:18;;;;;;;;;;;;;;;23.13;23.79;98441.84;5113877;28;20375;-87
2023/04/27 06:49:44;;;;;;;;;;;;;;;23.15;22.28;98443.03;5113809;28;19926;-87
2023/04/27 06:52:10;;;;;;;;;;;;;;;23.45;22.47;98441.50;5113638;28;20003;-87
2023/04/27 06:54:36;;;;;;;;;;;;;;;23.70;23.20;98437.13;5113747;28;20282;-87
2023/04/27 06:57:02;;;;;;;;;;;;;;;23.82;23.02;98439.34;5110890;28;19923;-87
2023/04/27 06:59:29;;;;;;;;;;;;;;;23.26;25.22;98443.72;5113423;28;20372;-86
2023/04/27 07:01:55;;;;;;;;;;;;;;;23.94;23.36;98440.78;5114034;28;19923;-87
2023/04/27 07:04:21;;;;;;;;;;;;;;;23.75;23.92;98445.06;5113610;28;19916;-87
2023/04/27 07:06:47;;;;;;;;;;;;;;;23.57;23.27;98438.91;5117728;28;19961;-86
2023/04/27 07:09:13;;;;;;;;;;;;;;;23.49;24.11;98447.84;5116358;28;20325;-87
2023/04/27 07:11:39;;;;;;;;;;;;;;;24.10;23.92;98445.75;5116390;28;20500;-87
2023/04/27 07:14:05;;;;;;;;;;;;;;;24.76;24.09;98435.41;5117763;28;19922;-87
2023/04/27 07:16:31;;;;;;;;;;;;;;;25.44;24.04;98444.03;5117118;28;20291;-87
2023/04/27 07:18:57;;;;;;;;;;;;;;;25.41;22.62;98442.84;5116848;28;19916;-87
2023/04/27 07:21:23;;;;;;;;;;;;;;;24.94;20.65;98449.09;5117264;28;19916;-86
2023/04/27 07:23:49;;;;;;;;;;;;;;;25.24;24.09;98444.03;5117240;28;19912;-87
2023/04/27 07:26:15;;;;;;;;;;;;;;;25.78;21.46;98443.69;5102075;28;20343;-87
2023/04/27 07:28:41;;;;;;;;;;;;;;;25.74;22.08;98443.00;5096951;28;19926;-87
2023/04/27 07:31:08;;;;;;;;;;;;;;;25.07;22.44;98450.81;5116334;28;19920;-86
2023/04/27 07:33:34;;;;;;;;;;;;;;;25.59;22.88;98448.16;5111925;28;19920;-87
2023/04/27 07:36:01;;;;;;;;;;;;;;;25.57;20.50;98447.00;5108118;28;20283;-88
2023/04/27 07:38:28;;;;;;;;;;;;;;;25.73;22.05;98445.00;5096309;28;19916;-87
2023/04/27 07:40:54;;;;;;;;;;;;;;;25.60;22.16;98444.09;5109721;28;20007;-87
2023/04/27 07:43:22;;;;;;;;;;;;;;;25.15;22.95;98455.09;5116838;28;19920;-86
2023/04/27 07:45:49;;;;;;;;;;;;;;;23.90;25.54;98459.66;5111031;28;20406;-86
2023/04/27 07:48:15;;;;;;;;;;;;;;;23.62;23.05;98458.06;5115044;28;19919;-85
2023/04/27 07:50:41;;;;;;;;;;;;;;;24.57;20.98;98456.56;5115869;28;19923;-87
2023/04/27 07:53:07;;;;;;;;;;;;;;;24.94;21.97;98457.50;5116348;28;19915;-86
2023/04/27 07:55:33;;;;;;;;;;;;;;;24.96;21.51;98455.06;5116534;28;19926;-87
2023/04/27 07:57:59;;;;;;;;;;;;;;;24.72;22.13;98449.47;5116203;28;19934;-87
2023/04/27 08:00:25;;;;;;;;;;;;;;;25.96;24.08;98439.25;5116406;28;19985;-87
2023/04/27 08:02:52;;;;;;;;;;;;;;;26.86;21.59;98442.22;5115393;28;20274;-87
2023/04/27 08:05:18;;;;;;;;;;;;;;;26.65;22.93;98443.53;5095850;28;19920;-87
2023/04/27 08:07:44;;;;;;;;;;;;;;;25.57;19.86;98444.97;5095954;28;19920;-87
2023/04/27 08:10:10;;;;;;;;;;;;;;;24.39;20.07;98453.25;5095537;28;19916;-86
2023/04/27 08:12:36;;;;;;;;;;;;;;;24.49;22.63;98452.28;5095934;28;19916;-88
2023/04/27 08:15:04;;;;;;;;;;;;;;;23.38;23.67;98456.41;5113812;28;20370;-86
2023/04/27 08:17:30;;;;;;;;;;;;;;;23.23;22.31;98457.75;5115398;28;20390;-86
2023/04/27 08:19:56;;;;;;;;;;;;;;;23.17;23.21;98459.44;5117524;28;19915;-86
2023/04/27 08:22:22;;;;;;;;;;;;;;;23.37;23.15;98454.81;5115793;28;19963;-87
2023/04/27 08:24:48;;;;;;;;;;;;;;;23.76;22.72;98462.66;5116062;28;19919;-88
2023/04/27 08:27:14;;;;;;;;;;;;;;;23.75;22.66;98464.69;5115593;28;19924;-87
2023/04/27 08:29:47;;;;;;;;;;;;;;;23.87;19.24;98469.72;5110112;28;19966;-86
2023/04/27 08:32:13;;;;;;;;;;;;;;;23.94;21.83;98472.41;5095681;28;19916;-87
2023/04/27 08:34:40;;;;;;;;;;;;;;;23.68;19.53;98469.59;5114700;28;20014;-87
2023/04/27 08:37:06;;;;;;;;;;;;;;;24.09;20.27;98460.97;5115762;28;20425;-87
2023/04/27 08:39:32;;;;;;;;;;;;;;;24.09;20.74;98463.78;5115523;28;19915;-87
2023/04/27 08:41:58;;;;;;;;;;;;;;;24.49;22.77;98465.53;5115573;28;19965;-87
2023/04/27 08:44:25;;;;;;;;;;;;;;;25.01;20.70;98468.63;5113202;28;19920;-87
2023/04/27 08:46:51;;;;;;;;;;;;;;;25.14;20.43;98470.34;5115409;28;19988;-87
2023/04/27 08:49:17;;;;;;;;;;;;;;;24.43;20.50;98470.84;5115334;28;19915;-87
2023/04/27 08:51:43;;;;;;;;;;;;;;;25.02;20.56;98462.56;5114763;28;20063;-87
2023/04/27 08:54:09;;;;;;;;;;;;;;;24.42;25.71;98472.06;5115100;28;19949;-87
2023/04/27 08:56:36;;;;;;;;;;;;;;;24.44;22.89;98460.41;5115445;28;20363;-87
2023/04/27 08:59:03;;;;;;;;;;;;;;;24.99;21.61;98466.25;5113791;28;20014;-87
2023/04/27 09:01:29;;;;;;;;;;;;;;;24.93;22.86;98458.72;5115007;28;19920;-87
2023/04/27 09:03:57;;;;;;;;;;;;;;;25.80;21.79;98458.91;5094937;28;19916;-87
2023/04/27 09:06:33;;;;;;;;;;;;;;;26.74;21.64;98463.44;5095053;28;19924;-87
2023/04/27 09:09:00;;;;;;;;;;;;;;;25.99;22.52;98468.53;5094726;28;19916;-87
2023/04/27 09:11:30;;;;;;;;;;;;;;;26.32;21.77;98456.09;5094988;28;20451;-87
2023/04/27 09:13:57;;;;;;;;;;;;;;;26.28;21.62;98458.19;5102221;28;20030;-88
2023/04/27 09:16:24;;;;;;;;;;;;;;;25.20;19.16;98460.19;5106130;28;19923;-87
2023/04/27 09:18:50;;;;;;;;;;;;;;;24.97;18.15;98456.66;5094836;28;19920;-87
2023/04/27 09:21:22;;;;;;;;;;;;;;;24.85;20.15;98463.72;5094339;28;19923;-87
2023/04/27 09:23:48;;;;;;;;;;;;;;;25.80;21.20;98452.50;5105873;28;19915;-87
2023/04/27 09:26:19;;;;;;;;;;;;;;;26.57;22.44;98452.63;5113850;28;19981;-87
2023/04/27 09:28:46;;;;;;;;;;;;;;;26.39;23.55;98443.84;5113946;28;19934;-87
2023/04/27 09:31:12;;;;;;;;;;;;;;;26.05;20.11;98450.69;5098430;28;19916;-88
2023/04/27 09:33:38;;;;;;;;;;;;;;;26.35;20.35;98443.94;5106402;28;19926;-88
2023/04/27 09:36:05;;;;;;;;;;;;;;;26.29;17.45;98447.72;5114653;28;19916;-88
2023/04/27 09:38:32;;;;;;;;;;;;;;;26.33;20.39;98439.97;5104643;28;19922;-87
2023/04/27 09:40:58;;;;;;;;;;;;;;;26.03;18.95;98441.88;5098112;28;19928;-87
2023/04/27 09:43:26;;;;;;;;;;;;;;;25.26;19.92;98441.59;5114551;28;19915;-88
2023/04/27 09:45:52;;;;;;;;;;;;;;;24.99;22.54;98440.97;5114614;28;19919;-87
2023/04/27 09:48:20;;;;;;;;;;;;;;;24.27;23.81;98441.88;5114667;28;19920;-87
2023/04/27 09:50:48;;;;;;;;;;;;;;;24.88;21.41;98451.59;5113189;28;19916;-88
2023/04/27 09:53:16;;;;;;;;;;;;;;;21.93;33.01;98455.03;5094102;28;19917;-88
2023/04/27 09:55:49;;;;;;;;;;;;;;;21.03;29.93;98457.84;5094065;28;20010;-88
2023/04/27 09:58:25;;;;;;;;;;;;;;;22.18;26.61;98462.41;5100953;28;20428;-87
2023/04/27 10:00:57;;;;;;;;;;;;;;;21.68;26.57;98468.31;5114366;28;19955;-87
2023/04/27 10:03:32;;;;;;;;;;;;;;;22.29;21.53;98461.13;5114288;28;19970;-85
2023/04/27 10:06:16;;;;;;;;;;;;;;;22.71;24.92;98464.78;5113279;28;19927;-85
2023/04/27 10:08:43;;;;;;;;;;;;;;;22.90;23.55;98458.53;5114466;28;19962;-88
2023/04/27 10:11:13;;;;;;;;;;;;;;;23.92;22.37;98457.22;5114304;28;20446;-87
2023/04/27 10:13:49;;;;;;;;;;;;;;;24.25;23.31;98461.16;5114179;28;19919;-86
2023/04/27 10:16:15;;;;;;;;;;;;;;;24.67;23.38;98455.56;5106145;28;19917;-87
2023/04/27 10:18:49;;;;;;;;;;;;;;;24.59;23.41;98453.31;5093931;28;19970;-86
2023/04/27 10:21:15;;;;;;;;;;;;;;;23.56;22.14;98465.34;5093591;28;19920;-85
2023/04/27 10:23:45;;;;;;;;;;;;;;;24.10;25.38;98462.59;5093609;28;19912;-86
2023/04/27 10:26:11;;;;;;;;;;;;;;;24.34;22.99;98450.16;5093396;28;20326;-86
2023/04/27 10:28:38;;;;;;;;;;;;;;;23.65;24.87;98453.63;5093359;28;20060;-85
2023/04/27 10:31:09;;;;;;;;;;;;;;;23.32;26.66;98460.84;5093493;28;19916;-85
2023/04/27 10:33:41;;;;;;;;;;;;;;;23.86;21.73;98444.88;5111660;28;19920;-87
2023/04/27 10:36:13;;;;;;;;;;;;;;;25.33;21.96;98440.66;5109864;28;19916;-87
2023/04/27 10:38:39;;;;;;;;;;;;;;;25.15;22.12;98440.22;5093450;28;20383;-86
2023/04/27 10:41:12;;;;;;;;;;;;;;;25.56;22.33;98443.38;5096121;28;20387;-86
2023/04/27 10:43:38;;;;;;;;;;;;;;;25.96;20.08;98438.44;5097696;28;19929;-87
2023/04/27 10:46:07;;;;;;;;;;;;;;;26.11;25.78;98436.91;5100701;28;19922;-86
2023/04/27 10:48:33;;;;;;;;;;;;;;;25.94;19.25;98433.25;5117001;28;20045;-86
2023/04/27 10:51:00;;;;;;;;;;;;;;;25.54;17.73;98440.22;5117599;28;20399;-85
2023/04/27 10:53:32;;;;;;;;;;;;;;;25.06;20.09;98438.00;5117655;28;20023;-83
2023/04/27 10:55:58;;;;;;;;;;;;;;;25.32;20.33;98441.88;5117250;28;19970;-84
2023/04/27 10:58:24;;;;;;;;;;;;;;;25.71;20.00;98450.28;5117023;28;19963;-84
2023/04/27 11:00:50;;;;;;;;;;;;;;;26.04;21.62;98451.13;5116321;28;19923;-84
2023/04/27 11:03:18;;;;;;;;;;;;;;;25.89;21.40;98441.41;5117220;28;19919;-86
2023/04/27 11:05:45;;;;;;;;;;;;;;;26.74;18.65;98443.72;5098875;28;19919;-85
2023/04/27 11:08:13;;;;;;;;;;;;;;;26.27;20.90;98438.94;5117308;28;19971;-85
2023/04/27 11:10:41;;;;;;;;;;;;;;;25.91;18.90;98447.41;5117037;28;19980;-85
2023/04/27 11:13:09;;;;;;;;;;;;;;;23.94;22.82;98457.59;5098994;28;19965;-86
2023/04/27 11:15:42;;;;;;;;;;;;;;;24.47;21.44;98449.13;5116598;28;20278;-86
2023/04/27 11:18:08;;;;;;;;;;;;;;;23.96;20.08;98461.56;5116955;28;19916;-85
2023/04/27 11:20:34;;;;;;;;;;;;;;;24.27;22.94;98459.47;5117170;28;19915;-85
2023/04/27 11:23:00;;;;;;;;;;;;;;;23.60;28.61;98470.91;5116758;28;19927;-85
2023/04/27 11:25:27;;;;;;;;;;;;;;;23.56;23.37;98465.34;5116608;28;19915;-86
2023/04/27 11:27:53;;;;;;;;;;;;;;;22.29;24.72;98466.72;5116728;28;19924;-85
2023/04/27 11:30:20;;;;;;;;;;;;;;;22.85;27.11;98473.03;5109038;28;19920;-85
2023/04/27 11:32:47;;;;;;;;;;;;;;;23.66;22.87;98474.84;5112709;28;20405;-85
2023/04/27 11:35:13;;;;;;;;;;;;;;;22.65;24.24;98479.22;5110012;28;20010;-85
2023/04/27 11:37:39;;;;;;;;;;;;;;;23.26;23.25;98474.53;5101611;28;19955;-85
2023/04/27 11:40:07;;;;;;;;;;;;;;;23.38;23.75;98470.41;5113822;28;20322;-85
2023/04/27 11:42:33;;;;;;;;;;;;;;;24.25;22.72;98472.38;5111700;28;19927;-85
2023/04/27 11:45:07;;;;;;;;;;;;;;;23.74;22.14;98463.09;5106821;28;20008;-85
2023/04/27 11:47:34;;;;;;;;;;;;;;;24.64;21.58;98469.69;5098411;28;19942;-85
2023/04/27 11:50:06;;;;;;;;;;;;;;;23.19;27.65;98468.22;5096294;28;19916;-85
2023/04/27 11:52:35;;;;;;;;;;;;;;;23.72;22.66;98468.34;5103672;28;20414;-85
2023/04/27 11:55:05;;;;;;;;;;;;;;;24.20;23.25;98470.81;5109892;28;20018;-85
2023/04/27 11:57:32;;;;;;;;;;;;;;;23.20;23.99;98469.78;5105284;28;20288;-85
2023/04/27 12:00:00;;;;;;;;;;;;;;;23.88;22.32;98474.09;5113538;28;20280;-86
2023/04/27 12:02:26;;;;;;;;;;;;;;;25.00;21.94;98462.19;5114228;28;19916;-86
2023/04/27 12:04:52;;;;;;;;;;;;;;;26.25;23.55;98456.28;5111687;28;19926;-85
2023/04/27 12:07:19;;;;;;;;;;;;;;;27.13;21.40;98456.75;5110742;28;20401;-86
2023/04/27 12:09:45;;;;;;;;;;;;;;;27.64;22.33;98460.50;5107978;28;19927;-86
2023/04/27 12:12:12;;;;;;;;;;;;;;;27.41;22.55;98457.97;5113130;28;19951;-86
2023/04/27 12:14:39;;;;;;;;;;;;;;;26.58;22.71;98454.22;5112064;28;20310;-86
2023/04/27 12:17:05;;;;;;;;;;;;;;;26.80;20.01;98452.44;5111255;28;20264;-86
2023/04/27 12:19:31;;;;;;;;;;;;;;;26.00;22.21;98450.41;5110925;28;20006;-86
2023/04/27 12:21:58;;;;;;;;;;;;;;;25.88;20.97;98451.09;5112579;28;19981;-86
2023/04/27 12:24:24;;;;;;;;;;;;;;;25.46;22.56;98452.06;5106823;28;19973;-85
2023/04/27 12:26:50;;;;;;;;;;;;;;;25.91;22.97;98462.25;5115849;28;20005;-85
2023/04/27 12:29:16;;;;;;;;;;;;;;;24.95;22.78;98459.88;5114944;28;19920;-85
2023/04/27 12:31:43;;;;;;;;;;;;;;;24.30;26.44;98453.03;5114750;28;20015;-85
2023/04/27 12:34:09;;;;;;;;;;;;;;;24.01;23.72;98458.25;5114834;28;19931;-85
2023/04/27 12:36:35;;;;;;;;;;;;;;;24.47;23.10;98460.34;5112838;28;19920;-86
2023/04/27 12:39:13;;;;;;;;;;;;;;;24.54;21.90;98463.03;5113955;28;19942;-85
2023/04/27 12:41:40;;;;;;;;;;;;;;;23.21;25.86;98471.38;5109199;28;19923;-88
2023/04/27 12:44:06;;;;;;;;;;;;;;;23.02;26.39;98466.41;5112823;28;20014;-86
2023/04/27 12:46:32;;;;;;;;;;;;;;;22.56;28.43;98464.88;5105197;28;20384;-83